• Join FlightAware (Why Join?)
  • Login
  • US Flag GB Flag 
08:01 EST


 

Airport Tracker/Info


-or-


 

Live Flight TrackerFlight Track Log ✈ BOE2 ✈ 05-Dec-2013 ✈ KBFI - KBFI

Flight Track Log - Related Links

Times and Time Zones

All times are in EST time to prevent confusion due to time zone crossing. See the BOE2 flight status page for this flight to view local times or setup timezone preferences in your user account.

Time Position Orientation Groundspeed Altitude Reporting Facility
EST Latitude Longitude Course Direction KTS MPH feet Rate Location/Type
15:17 47.5117 -122.2878 149° Southeast 171 197 1,100  Level Seattle Center
15:18 47.4800 -122.2594 149° Southeast 215 247 2,400 2,460 Climbing Seattle Center
15:18 47.4647 -122.2442 146° Southeast 207 238 3,300 3,240 Climbing Seattle Center
15:19 47.4219 -122.2061 149° Southeast 270 311 5,700 3,120 Climbing Seattle Center
15:19 47.3997 -122.2019 173° South 257 296 6,500 960 Climbing Seattle Center
15:20 47.3328 -122.2294 196° South 268 308 7,000 240 Climbing Seattle Center
15:21 47.3214 -122.3361 261° West 265 305 7,000  Level Seattle Center
15:22 47.3144 -122.4450 265° West 266 306 7,000 1,620 Level Seattle Center
15:23 47.3058 -122.5556 263° West 270 311 10,300 2,340 Climbing Seattle Center
15:24 47.2956 -122.6828 263° West 325 374 11,800 2,340 Climbing Seattle Center
15:25 47.2825 -122.8439 263° West 367 422 15,100 3,000 Climbing Seattle Center
15:26 47.2583 -122.9964 257° West 386 444 17,900 2,340 Climbing Seattle Center
15:27 47.1889 -123.1033 226° Southwest 432 497 19,900 1,860 Climbing Seattle Center
15:28 47.0656 -123.1486 194° South 455 524 21,700 1,800 Climbing Seattle Center
15:29 46.9353 -123.1964 194° South 478 550 23,600 1,680 Climbing Seattle Center
15:30 46.7983 -123.2486 195° South 503 579 25,200 1,560 Climbing Seattle Center
15:31 46.6575 -123.2992 194° South 519 597 26,800 1,320 Climbing Seattle Center
15:32 46.4833 -123.3672 195° South 542 624 28,000 540 Climbing Seattle Center
15:33 46.3400 -123.4214 195° South 537 618 28,000 780 Level Seattle Center
15:34 46.1964 -123.4756 195° South 537 618 29,700 1,620 Climbing Seattle Center
15:35 46.0506 -123.5303 195° South 542 624 31,400 1,560 Climbing Seattle Center
15:36 45.9047 -123.5842 194° South 545 627 32,900 1,320 Climbing Seattle Center
15:37 45.7597 -123.6350 194° South 542 624 34,200 1,080 Climbing Seattle Center
15:38 45.6119 -123.6897 195° South 548 631 35,100 600 Climbing Seattle Center
15:39 45.4644 -123.7431 194° South 551 634 35,500 180 Climbing Seattle Center
15:40 45.3181 -123.7958 194° South 549 632 35,500  Level Seattle Center
15:41 45.1722 -123.8481 194° South 548 631 35,500  Level Seattle Center
15:42 44.9994 -123.9117 195° South 545 627 35,500 -60 Level Seattle Center
15:43 44.8556 -123.9631 194° South 546 628 35,400  Descending Seattle Center
15:44 44.7044 -123.9872 186° South 559 643 35,500  Climbing Seattle Center
15:45 44.5503 -123.9911 181° South 560 644 35,500 -60 Level Seattle Center
15:46 44.3942 -123.9536 170° South 578 665 35,400  Descending Seattle Center
15:47 44.2394 -123.9022 167° South 577 664 35,500  Climbing Seattle Center
15:48 44.0822 -123.8911 177° South 564 649 35,500 -60 Level Seattle Center
15:49 43.9300 -123.9167 187° South 556 640 35,400  Descending Seattle Center
15:50 43.7475 -123.9453 186° South 553 636 35,500 60 Climbing Seattle Center
15:51 43.6436 -124.0383 213° Southwest 507 583 35,600 60 Climbing Seattle Center
15:52 43.5856 -124.2147 246° West 452 520 35,700 60 Climbing Seattle Center
15:53 43.5353 -124.3767 247° West 457 526 35,800  Climbing Seattle Center
15:54 43.4847 -124.5364 246° West 457 526 35,700  Descending Seattle Center
15:55 43.4339 -124.6975 247° West 458 527 35,800  Climbing Seattle Center
15:56 43.3836 -124.8572 247° West 456 525 35,700 -60 Descending Seattle Center
15:57 43.3328 -125.0189 247° West 460 529 35,700  Level Seattle Center
15:58 43.2808 -125.1786 246° West 460 529 35,700  Level Seattle Center
15:59 43.2283 -125.3389 246° West 461 531 35,700  Level Seattle Center
16:00 43.1181 -125.4425 214° Southwest 513 590 35,700 -60 Level Seattle Center
16:02 42.9764 -125.3464 154° Southeast 574 661 35,600  Descending Seattle Center
16:03 42.8311 -125.2017 144° Southeast 581 669 35,700  Climbing Seattle Center
16:04 42.7003 -125.0725 144° Southeast 581 669 35,700  Level Seattle Center
16:05 42.5689 -124.9425 144° Southeast 582 670 35,700  Level Seattle Center
16:06 42.4369 -124.8156 145° Southeast 583 671 35,700  Level Seattle Center
16:07 42.3053 -124.6889 145° Southeast 581 669 35,700  Level Seattle Center
16:08 42.1744 -124.5589 144° Southeast 584 672 35,700  Level Seattle Center
16:09 42.0414 -124.4317 145° Southeast 585 673 35,700 -60 Level Seattle Center
16:10 41.8836 -124.2775 144° Southeast 585 673 35,600  Descending Seattle Center
16:11 41.7517 -124.1514 144° Southeast 582 670 35,700  Climbing Seattle Center
16:12 41.6047 -124.1647 184° South 550 633 35,700  Level Seattle Center
16:13 41.5747 -124.3100 255° West 443 510 35,700  Level Seattle Center
16:14 41.6583 -124.3936 323° Northwest 389 448 35,700  Level Seattle Center
16:15 41.7444 -124.4728 326° Northwest 381 438 35,700  Level Seattle Center
16:16 41.8328 -124.5514 326° Northwest 380 437 35,700  Level Seattle Center
16:17 41.9197 -124.6300 326° Northwest 379 436 35,700  Level Seattle Center
16:18 42.0069 -124.7092 326° Northwest 379 436 35,700 -60 Level Seattle Center
16:19 42.0950 -124.7872 327° Northwest 380 437 35,600  Descending Seattle Center
16:20 42.1833 -124.8672 326° Northwest 381 438 35,700  Climbing Seattle Center
16:21 42.2722 -124.9442 327° Northwest 383 441 35,700  Level Seattle Center
16:22 42.3767 -125.0386 326° Northwest 378 435 35,700 -60 Level Seattle Center
16:23 42.4650 -125.1169 327° Northwest 379 436 35,600  Descending Seattle Center
16:24 42.5517 -125.1944 327° Northwest 376 433 35,700  Climbing Seattle Center
16:25 42.6394 -125.2686 328° Northwest 372 428 35,700  Level Seattle Center
16:26 42.7256 -125.3464 326° Northwest 374 430 35,700  Level Seattle Center
16:27 42.8117 -125.4225 327° Northwest 370 426 35,700  Level Seattle Center
16:28 42.9078 -125.5056 328° Northwest 373 429 35,700  Level Seattle Center
16:29 42.9953 -125.5803 328° Northwest 372 428 35,700  Level Seattle Center
16:30 43.0825 -125.6569 327° Northwest 372 428 35,700 -60 Level Seattle Center
16:31 43.1706 -125.7353 327° Northwest 376 433 35,600  Descending Seattle Center
16:32 43.2617 -125.8175 327° Northwest 384 442 35,700  Climbing Seattle Center
16:33 43.3508 -125.8939 328° Northwest 382 440 35,700  Level Seattle Center
16:34 43.4381 -125.9683 328° Northwest 378 435 35,700  Level Seattle Center
16:35 43.5297 -126.0428 330° Northwest 382 440 35,700  Level Seattle Center
16:36 43.6275 -125.9597 32° Northeast 476 548 35,800  Climbing Seattle Center
16:37 43.5944 -125.7669 103° East 600 690 35,800  Level Seattle Center
16:38 43.4669 -125.6267 141° Southeast 599 689 35,900  Climbing Seattle Center
16:39 43.3108 -125.4592 142° Southeast 595 685 35,900 -60 Level Seattle Center
16:40 43.1614 -125.4167 168° South 561 646 35,800  Descending Seattle Center
16:41 43.0089 -125.3736 168° South 572 658 35,900  Climbing Seattle Center
16:42 42.8939 -125.2511 142° Southeast 588 677 35,900  Level Seattle Center
16:43 42.7642 -125.1189 143° Southeast 585 673 35,900  Level Seattle Center
16:44 42.6072 -124.9597 143° Southeast 587 676 35,900  Level Seattle Center
16:45 42.4769 -124.8253 143° Southeast 589 678 35,900  Level Seattle Center
16:46 42.3464 -124.6933 143° Southeast 587 676 35,900  Level Seattle Center
16:47 42.2150 -124.5597 143° Southeast 590 679 35,900  Level Seattle Center
16:48 42.0839 -124.4264 143° Southeast 589 678 35,900  Level Seattle Center
16:49 41.9408 -124.3483 158° South 567 652 35,900  Level Seattle Center
16:50 41.8411 -124.4528 218° Southwest 487 560 36,000  Climbing Seattle Center
16:51 41.8861 -124.5642 299° West 382 440 35,900  Descending Seattle Center
16:52 41.9686 -124.6467 323° Northwest 369 425 36,000  Climbing Seattle Center
16:53 42.0500 -124.7292 323° Northwest 369 425 36,000  Level Seattle Center
16:54 42.1325 -124.8133 323° Northwest 371 427 36,000  Level Seattle Center
16:55 42.2319 -124.9114 324° Northwest 370 426 36,000  Level Seattle Center
16:56 42.3142 -124.9939 323° Northwest 370 426 36,000  Level Seattle Center
16:57 42.3986 -125.0747 325° Northwest 371 427 36,000 -60 Level Seattle Center
16:58 42.4806 -125.1567 324° Northwest 369 425 35,900  Descending Seattle Center
17:00 42.5625 -125.2414 323° Northwest 372 428 36,000  Climbing Seattle Center
17:01 42.6467 -125.3228 325° Northwest 372 428 35,900 -60 Descending Seattle Center
17:02 42.7297 -125.4042 324° Northwest 369 425 35,900 240 Level Seattle Center
17:03 42.8142 -125.4883 324° Northwest 374 430 36,500 1,020 Climbing Seattle Center
17:04 42.9094 -125.5817 324° Northwest 383 441 38,000 1,080 Climbing Seattle Center
17:05 42.9928 -125.6611 325° Northwest 373 429 38,700 360 Climbing Seattle Center
17:06 43.0906 -125.5992 25° Northeast 420 483 38,800 120 Climbing Seattle Center
17:07 43.0586 -125.4203 104° East 506 582 39,000 60 Climbing Seattle Center
17:08 42.9314 -125.2967 145° Southeast 553 636 39,000  Level Seattle Center
17:09 42.7903 -125.1644 145° Southeast 561 646 39,000 -60 Level Seattle Center
17:10 42.6611 -125.0450 146° Southeast 562 647 38,900  Descending Seattle Center
17:11 42.5314 -124.9267 146° Southeast 562 647 39,000  Climbing Seattle Center
17:12 42.4017 -124.8086 146° Southeast 562 647 39,000  Level Seattle Center
17:13 42.2736 -124.6894 145° Southeast 561 646 39,000  Level Seattle Center
17:14 42.1456 -124.5714 146° Southeast 558 642 39,000  Level Seattle Center
17:15 42.0178 -124.4531 145° Southeast 558 642 39,000  Level Seattle Center
17:16 41.8889 -124.3339 145° Southeast 561 646 39,000  Level Seattle Center
17:17 41.7558 -124.2272 149° Southeast 561 646 39,000  Level Seattle Center
17:18 41.6317 -124.2933 202° Southwest 516 594 39,000  Level Seattle Center
17:19 41.6636 -124.4478 286° West 421 484 39,000  Level Seattle Center
17:20 41.7556 -124.5325 326° Northwest 403 464 39,000  Level Seattle Center
17:21 41.8506 -124.6178 326° Northwest 406 467 39,000  Level Seattle Center
17:22 41.9428 -124.7042 325° Northwest 407 468 39,000  Level Seattle Center
17:23 42.0356 -124.7886 326° Northwest 405 466 39,000  Level Seattle Center
17:24 42.1289 -124.8747 326° Northwest 406 467 39,000  Level Seattle Center
17:25 42.2225 -124.9600 326° Northwest 407 468 39,000  Level Seattle Center
17:26 42.3167 -125.0472 326° Northwest 410 472 39,000  Level Seattle Center
17:27 42.4097 -125.1336 326° Northwest 408 470 39,000  Level Seattle Center
17:28 42.5033 -125.2208 326° Northwest 409 471 39,000  Level Seattle Center
17:29 42.5978 -125.3094 325° Northwest 411 473 39,000  Level Seattle Center
17:30 42.6917 -125.3956 326° Northwest 410 472 39,000 -60 Level Seattle Center
17:31 42.7839 -125.4792 326° Northwest 403 464 38,900  Descending Seattle Center
17:32 42.8856 -125.5725 326° Northwest 404 465 39,000  Climbing Seattle Center
17:33 42.9797 -125.6544 328° Northwest 403 464 38,900  Descending Seattle Center
17:34 43.0747 -125.7342 328° Northwest 402 463 39,000  Climbing Seattle Center
17:35 43.1783 -125.6572 28° Northeast 476 548 39,000  Level Seattle Center
17:36 43.1331 -125.4733 109° East 553 636 39,000  Level Seattle Center
17:37 43.0078 -125.3522 145° Southeast 556 640 39,000 -60 Level Seattle Center
17:38 42.8642 -125.2181 146° Southeast 561 646 38,900 -60 Descending Seattle Center
17:39 42.7342 -125.0972 146° Southeast 566 651 38,900  Level Seattle Center
17:40 42.6047 -124.9792 146° Southeast 564 649 39,000  Climbing Seattle Center
17:41 42.4761 -124.8586 145° Southeast 562 647 39,000  Level Seattle Center
17:42 42.3472 -124.7394 146° Southeast 561 646 39,000 -60 Level Seattle Center
17:43 42.2194 -124.6192 145° Southeast 560 644 38,900  Descending Seattle Center
17:44 42.0914 -124.4986 145° Southeast 561 646 39,000  Climbing Seattle Center
17:45 41.9619 -124.3819 146° Southeast 561 646 39,000  Level Seattle Center
17:46 41.8003 -124.4364 194° South 520 598 39,000  Level Seattle Center
17:47 41.7808 -124.5886 260° West 447 514 39,000  Level Seattle Center
17:48 41.8653 -124.6875 319° Northwest 410 472 39,000  Level Seattle Center
17:49 41.9578 -124.7758 325° Northwest 409 471 39,000  Level Seattle Center
17:50 42.0497 -124.8656 324° Northwest 409 471 39,000  Level Seattle Center
17:51 42.1425 -124.9519 325° Northwest 407 468 39,000  Level Seattle Center
17:52 42.2347 -125.0392 325° Northwest 407 468 39,000  Level Seattle Center
17:53 42.3275 -125.1281 325° Northwest 408 470 39,000  Level Seattle Center
17:54 42.4194 -125.2175 324° Northwest 409 471 39,000  Level Seattle Center
17:55 42.5119 -125.3069 325° Northwest 409 471 39,000  Level Seattle Center
17:56 42.6044 -125.3939 325° Northwest 407 468 39,000  Level Seattle Center
17:57 42.6972 -125.4806 326° Northwest 406 467 39,000  Level Seattle Center
17:58 42.7889 -125.5697 324° Northwest 406 467 39,000  Level Seattle Center
17:59 42.8914 -125.6631 326° Northwest 406 467 39,000  Level Seattle Center
18:00 42.9992 -125.5950 25° Northeast 458 527 39,000 -60 Level Seattle Center
18:01 42.9778 -125.4094 99° East 519 597 38,900  Descending Seattle Center
18:02 42.8406 -125.2575 141° Southeast 568 654 39,000  Climbing Seattle Center
18:03 42.7158 -125.1267 142° Southeast 568 654 39,000  Level Seattle Center
18:05 42.5908 -124.9931 142° Southeast 570 656 39,000  Level Seattle Center
18:06 42.4661 -124.8614 142° Southeast 571 657 39,000  Level Seattle Center
18:07 42.3419 -124.7308 142° Southeast 567 652 39,000  Level Seattle Center
18:08 42.2186 -124.5986 142° Southeast 566 651 39,000  Level Seattle Center
18:09 42.0942 -124.4697 142° Southeast 565 650 39,000  Level Seattle Center
18:10 41.9708 -124.3386 142° Southeast 565 650 39,000  Level Seattle Center
18:11 41.8478 -124.2078 142° Southeast 565 650 39,000  Level Seattle Center
18:12 41.7061 -124.2031 179° South 537 618 39,000  Level Seattle Center
18:13 41.6658 -124.3472 250° West 455 524 39,000  Level Seattle Center
18:14 41.7467 -124.4464 318° Northwest 408 470 39,000  Level Seattle Center
18:15 41.8519 -124.5558 322° Northwest 400 460 39,000  Level Seattle Center
18:16 41.9389 -124.6503 321° Northwest 401 461 39,000  Level Seattle Center
18:17 42.0272 -124.7422 322° Northwest 402 463 39,000  Level Seattle Center
18:18 42.1161 -124.8361 322° Northwest 405 466 39,000 -1,320 Level Seattle Center
18:19 42.1997 -124.9233 322° Northwest 391 450 36,400 -3,060 Descending Seattle Center
18:20 42.2761 -124.9983 324° Northwest 353 406 32,800 -4,500 Descending Seattle Center
18:21 42.3439 -125.0708 322° Northwest 321 369 27,300 -5,460 Descending Seattle Center
18:22 42.4094 -125.1403 322° Northwest 305 351 21,900 -4,920 Descending Seattle Center
18:23 42.4800 -125.0778 33° Northeast 320 368 17,400 -4,380 Descending Seattle Center
18:24 42.4733 -124.9494 94° East 348 400 13,100 -3,840 Descending Seattle Center
18:25 42.4056 -124.8669 138° Southeast 333 383 9,700 -2,940 Descending Seattle Center
18:26 42.3403 -124.8003 143° Southeast 306 352 7,200 -1,740 Descending Seattle Center
18:27 42.2861 -124.7425 142° Southeast 275 316 6,200 -1,020 Descending Seattle Center
18:28 42.2361 -124.6947 145° Southeast 241 277 5,200 -600 Descending Seattle Center
18:29 42.1758 -124.6342 143° Southeast 229 264 5,100  Descending Seattle Center
18:30 42.1308 -124.5844 141° Southeast 218 251 5,200  Climbing Seattle Center
18:31 42.0861 -124.5378 142° Southeast 211 243 5,200  Level Seattle Center
18:32 42.0408 -124.4906 142° Southeast 207 238 5,200  Level Seattle Center
18:33 41.9958 -124.4456 143° Southeast 205 236 5,200  Level Seattle Center
18:34 41.9497 -124.3981 143° Southeast 206 237 5,200  Level Seattle Center
18:35 41.9050 -124.3497 141° Southeast 206 237 5,200  Level Seattle Center
18:36 41.8750 -124.2908 124° Southeast 211 243 5,200 -60 Level Seattle Center
18:37 41.9156 -124.2717 19° North 190 219 5,100  Descending Seattle Center
18:38 41.9631 -124.2939 341° North 182 209 5,200  Climbing Seattle Center
18:39 41.9997 -124.3344 321° Northwest 170 196 5,200 -60 Level Seattle Center
18:40 42.0383 -124.3772 321° Northwest 174 200 5,100 -60 Descending Seattle Center
18:41 42.0797 -124.4117 328° Northwest 177 204 5,100  Level Seattle Center
18:42 42.1289 -124.4267 347° North 180 207 5,200  Climbing Seattle Center
18:43 42.1864 -124.4428 348° North 178 205 5,100  Descending Seattle Center
18:44 42.2336 -124.4592 346° North 177 204 5,200  Climbing Seattle Center
18:45 42.2708 -124.4714 346° North 175 201 5,200 -60 Level Seattle Center
18:46 42.3269 -124.4922 345° North 175 201 5,100  Descending Seattle Center
18:47 42.3739 -124.5094 345° North 175 201 5,200  Climbing Seattle Center
18:48 42.4183 -124.5306 341° North 172 198 5,200  Level Seattle Center
18:49 42.4642 -124.5469 345° North 171 197 5,200  Level Seattle Center
18:50 42.5086 -124.5683 340° North 169 194 5,200  Level Seattle Center
18:51 42.5525 -124.5919 338° Northwest 170 196 5,200  Level Seattle Center
18:52 42.5983 -124.6053 348° North 170 196 5,200  Level Seattle Center
18:53 42.6428 -124.6261 341° North 169 194 5,200  Level Seattle Center
18:54 42.6875 -124.6431 344° North 167 192 5,200  Level Seattle Center
18:55 42.7322 -124.6619 343° North 169 194 5,200 -60 Level Seattle Center
18:56 42.7775 -124.6592 North 165 190 5,100  Descending Seattle Center
18:57 42.8328 -124.6317 20° North 164 189 5,200  Climbing Seattle Center
18:58 42.8792 -124.6072 21° North 170 196 5,200 -60 Level Seattle Center
18:59 42.9247 -124.5842 20° North 172 198 5,100  Descending Seattle Center
19:00 42.9708 -124.5606 21° North 174 200 5,200  Climbing Seattle Center
19:01 43.0158 -124.5394 19° North 174 200 5,100  Descending Seattle Center
19:02 43.0561 -124.5186 21° North 174 200 5,200  Climbing Seattle Center
19:03 43.1108 -124.4914 20° North 175 201 5,200 -60 Level Seattle Center
19:04 43.1525 -124.4731 18° North 175 201 5,100  Descending Seattle Center
19:05 43.2053 -124.4531 15° North 196 226 5,200  Climbing Seattle Center
19:06 43.2514 -124.4419 10° North 172 198 5,100  Descending Seattle Center
19:07 43.2986 -124.4308 10° North 172 198 5,200  Climbing Seattle Center
19:08 43.3453 -124.4189 11° North 172 198 5,200  Level Seattle Center
19:09 43.3928 -124.4067 11° North 173 199 5,200 -60 Level Seattle Center
19:10 43.4400 -124.3931 12° North 173 199 5,100 -60 Descending Seattle Center
19:11 43.4878 -124.3806 11° North 174 200 5,100  Level Seattle Center
19:12 43.5356 -124.3714 North 174 200 5,200  Climbing Seattle Center
19:14 43.5844 -124.3617 North 175 201 5,200  Level Seattle Center
19:15 43.6314 -124.3531 North 173 199 5,200  Level Seattle Center
19:16 43.6797 -124.3439 North 173 199 5,200 -60 Level Seattle Center
19:17 43.7383 -124.3414 North 175 201 5,100 -60 Descending Seattle Center
19:18 43.7867 -124.3331 North 176 203 5,100  Level Seattle Center
19:19 43.8347 -124.3247 North 175 201 5,200  Climbing Seattle Center
19:20 43.8825 -124.3211 North 173 199 5,200  Level Seattle Center
19:21 43.9300 -124.3125 North 173 199 5,200  Level Seattle Center
19:22 43.9778 -124.3064 North 172 198 5,200  Level Seattle Center
19:23 44.0258 -124.3003 North 173 199 5,300  Climbing Seattle Center
19:24 44.0736 -124.2900 North 173 199 5,300  Level Seattle Center
19:25 44.1225 -124.2833 North 175 201 5,300  Level Seattle Center
19:26 44.1697 -124.2728 North 174 200 5,300  Level Seattle Center
19:27 44.2167 -124.2650 North 172 198 5,300  Level Seattle Center
19:28 44.2633 -124.2569 North 170 196 5,300  Level Seattle Center
19:29 44.3217 -124.2433 North 174 200 5,300  Level Seattle Center
19:30 44.3697 -124.2344 North 175 201 5,300  Level Seattle Center
19:31 44.4183 -124.2239 North 175 201 5,300  Level Seattle Center
19:32 44.4669 -124.2150 North 176 203 5,300 -60 Level Seattle Center
19:33 44.5161 -124.2025 10° North 176 203 5,200  Descending Seattle Center
19:34 44.5658 -124.1911 North 177 204 5,300  Climbing Seattle Center
19:35 44.6139 -124.1769 12° North 175 201 5,300 -60 Level Seattle Center
19:36 44.6625 -124.1656 North 177 204 5,200 -60 Descending Seattle Center
19:37 44.7294 -124.1508 North 227 261 5,200 1,680 Level Seattle Center
19:38 44.7981 -124.1361 North 248 285 8,700 2,700 Climbing Seattle Center
19:39 44.8639 -124.0950 24° Northeast 263 303 10,800 2,220 Climbing Seattle Center
19:40 44.9553 -124.0428 22° Northeast 335 386 13,300 2,760 Climbing Seattle Center
19:41 45.0556 -123.9881 21° North 371 427 16,500 2,220 Climbing Seattle Center
19:42 45.1581 -123.9314 21° North 387 445 17,900 660 Climbing Seattle Center
19:43 45.2614 -123.8781 20° North 392 451 17,900  Level Seattle Center
19:44 45.3636 -123.8194 22° Northeast 393 452 18,000 60 Climbing Seattle Center
19:45 45.4822 -123.7392 25° Northeast 394 453 18,100  Climbing Seattle Center
19:46 45.5708 -123.6658 30° Northeast 372 428 18,000 -60 Descending Seattle Center
19:47 45.6478 -123.6156 25° Northeast 308 354 18,000  Level Seattle Center
19:48 45.7214 -123.5689 24° Northeast 292 336 18,000  Level Seattle Center
19:49 45.7950 -123.5256 22° Northeast 287 330 18,000  Level Seattle Center
19:50 45.8683 -123.4811 23° Northeast 287 330 18,000 -60 Level Seattle Center
19:51 45.9431 -123.4394 21° North 288 331 17,900  Descending Seattle Center
19:52 46.0167 -123.3939 23° Northeast 289 333 18,000  Climbing Seattle Center
19:53 46.0919 -123.3556 19° North 289 333 17,900  Descending Seattle Center
19:54 46.1672 -123.3172 19° North 288 331 18,000  Climbing Seattle Center
19:55 46.2422 -123.2828 18° North 284 327 18,000  Level Seattle Center
19:56 46.3192 -123.2525 15° North 285 328 18,000  Level Seattle Center
19:57 46.3947 -123.2306 11° North 279 321 18,000 -240 Level Seattle Center
19:58 46.4747 -123.2017 14° North 277 319 17,600 -480 Descending Seattle Center
19:59 46.5486 -123.1539 24° Northeast 287 330 17,100 -300 Descending Seattle Center
20:00 46.6222 -123.1047 25° Northeast 292 336 17,000  Descending Seattle Center
20:01 46.7106 -123.0486 24° Northeast 288 331 17,100  Climbing Seattle Center
20:02 46.7836 -123.0081 21° North 283 326 17,100 -120 Level Seattle Center
20:03 46.8314 -122.9883 16° North 288 331 17,000 -120 Descending Seattle Center
20:03 46.8608 -122.9686 25° Northeast 295 339 17,000  Level Seattle Center
20:04 46.8892 -122.9542 19° North 293 337 17,000  Level Seattle Center
20:04 46.9331 -122.9156 31° Northeast 297 342 17,000  Level Seattle Center
20:05 46.9561 -122.9025 21° North 293 337 17,000 -540 Level Seattle Center
20:05 47.0036 -122.8594 32° Northeast 289 333 16,500 -900 Descending Seattle Center
20:06 47.0275 -122.8417 27° Northeast 296 341 16,100 -1,800 Descending Seattle Center
20:06 47.0764 -122.7783 41° Northeast 304 350 14,700 -1,620 Descending Seattle Center
20:07 47.0889 -122.7600 45° Northeast 304 350 14,500 -600 Descending Seattle Center
20:07 47.1311 -122.6975 45° Northeast 277 319 14,100 -840 Descending Seattle Center
20:08 47.1428 -122.6822 42° Northeast 268 308 13,700 -1,140 Descending Seattle Center
20:08 47.1836 -122.6236 44° Northeast 265 305 13,000 -900 Descending Seattle Center
20:09 47.1919 -122.6133 40° Northeast 256 295 12,900 -900 Descending Seattle Center
20:09 47.2372 -122.5586 39° Northeast 252 290 12,100 -1,140 Descending Seattle Center
20:10 47.2453 -122.5517 30° Northeast 251 289 11,800 -1,320 Descending Seattle Center
20:10 47.2967 -122.4925 38° Northeast 250 288 10,800 -1,140 Descending Seattle Center
20:11 47.2972 -122.4939 301° West 246 283 10,800 -1,320 Level Seattle Center
20:11 47.3561 -122.4644 19° North 235 270 9,500 -1,320 Descending Seattle Center
20:12 47.3544 -122.4658 209° Southwest 226 260 9,500 -1,620 Level Seattle Center
20:12 47.4164 -122.4636 North 218 251 7,900 -1,740 Descending Seattle Center
20:13 47.4258 -122.4661 350° North 207 238 7,600 -2,400 Descending Seattle Center
20:13 47.4739 -122.4689 358° North 208 239 5,500 -2,340 Descending Seattle Center
20:14 47.4872 -122.4719 351° North 207 238 5,000 -1,380 Descending Seattle Center
20:15 47.5292 -122.4786 354° North 200 230 4,100 -1,260 Descending Seattle Center
20:15 47.5333 -122.4792 355° North 196 226 4,000 -540 Descending Seattle Center
20:16 47.5775 -122.4903 350° North 179 206 3,600 -540 Descending Seattle Center
20:16 47.5811 -122.4925 337° Northwest 176 203 3,500 -720 Descending Seattle Center
20:17 47.6289 -122.5050 350° North 176 203 2,900 -600 Descending Seattle Center
20:17 47.6308 -122.5047 North 177 204 2,900 -600 Level Seattle Center
20:18 47.6686 -122.4656 35° Northeast 176 203 2,300 -540 Descending Seattle Center
20:18 47.6731 -122.4517 65° Northeast 172 198 2,300 -240 Level Seattle Center
20:19 47.6594 -122.4028 112° Southeast 175 201 2,100 -300 Descending Seattle Center
20:19 47.6608 -122.4028 360° North 172 198 2,100 -120 Level Seattle Center
20:20 47.6169 -122.3772 159° South 166 191 2,000 -300 Descending Seattle Center
20:20 47.6081 -122.3694 149° Southeast 163 188 1,800 -1,020 Descending Seattle Center
20:21 47.5744 -122.3419 151° Southeast 153 176 900 -840 Descending Seattle Center
20:22 47.5461 -122.3169 149° Southeast 154 177 300 8,820 Descending Seattle Center
20:23 47.5033 -122.2808 150° Southeast 153 176 18,000 17,400 Climbing Seattle Center